createdAt,value
2019-04-07T00:01:45.277Z,92.90
2019-04-07T00:03:50.900Z,92.80
2019-04-07T00:05:56.408Z,93.00
2019-04-07T00:08:02.015Z,93.30
2019-04-07T00:10:09.864Z,93.50
2019-04-07T00:12:16.502Z,93.90
2019-04-07T00:14:22.028Z,93.70
2019-04-07T00:16:27.757Z,94.00
2019-04-07T00:18:33.279Z,94.30
2019-04-07T00:20:38.807Z,94.60
2019-04-07T00:22:44.340Z,94.70
2019-04-07T00:24:49.868Z,94.80
2019-04-07T00:26:55.460Z,94.50
2019-04-07T00:29:01.555Z,94.70
2019-04-07T00:31:07.348Z,94.50
2019-04-07T00:33:13.319Z,94.70
2019-04-07T00:35:26.479Z,94.50
2019-04-07T00:37:26.258Z,94.90
2019-04-07T00:39:32.292Z,95.00
2019-04-07T00:41:38.670Z,94.60
2019-04-07T00:43:45.181Z,94.00
2019-04-07T00:45:50.909Z,94.20
2019-04-07T00:47:56.804Z,94.60
2019-04-07T00:50:02.912Z,94.70
2019-04-07T00:52:10.275Z,94.90
2019-04-07T00:54:35.843Z,95.20
2019-04-07T00:56:41.445Z,94.60
2019-04-07T00:58:47.361Z,94.60
2019-04-07T01:00:53.032Z,94.30
2019-04-07T01:02:59.436Z,94.50
2019-04-07T01:05:07.307Z,94.60
2019-04-07T01:07:12.967Z,94.40
2019-04-07T01:09:18.760Z,94.60
2019-04-07T01:11:24.367Z,94.70
2019-04-07T01:13:29.919Z,94.90
2019-04-07T01:15:35.403Z,94.40
2019-04-07T01:17:40.931Z,94.10
2019-04-07T01:19:46.447Z,93.90
2019-04-07T01:21:51.973Z,94.20
2019-04-07T01:23:57.870Z,93.90
2019-04-07T01:26:03.613Z,93.80
2019-04-07T01:28:09.074Z,94.00
2019-04-07T01:30:15.054Z,94.10
2019-04-07T01:32:20.564Z,93.80
2019-04-07T01:34:26.232Z,93.80
2019-04-07T01:36:31.752Z,93.80
2019-04-07T01:38:37.852Z,94.60
2019-04-07T01:40:45.436Z,95.00
2019-04-07T01:43:02.743Z,94.90
2019-04-07T01:45:12.819Z,94.50
2019-04-07T01:47:28.925Z,94.70
2019-04-07T01:49:51.184Z,94.70
2019-04-07T01:51:58.344Z,94.40
2019-04-07T01:54:05.572Z,94.60
2019-04-07T01:56:12.921Z,94.60
2019-04-07T01:58:23.080Z,94.20
2019-04-07T02:00:30.248Z,94.00
2019-04-07T02:02:53.681Z,94.10
2019-04-07T02:05:05.546Z,94.40
2019-04-07T02:07:12.958Z,94.50
2019-04-07T02:09:32.465Z,94.30
2019-04-07T02:11:39.790Z,94.20
2019-04-07T02:14:03.697Z,94.30
2019-04-07T02:16:11.441Z,94.20
2019-04-07T02:18:18.778Z,94.30
2019-04-07T02:20:46.812Z,94.30
2019-04-07T02:25:19.885Z,94.80
2019-04-07T02:27:27.212Z,95.10
2019-04-07T02:29:37.378Z,95.10
2019-04-07T02:31:56.805Z,95.00
2019-04-07T02:34:07.124Z,95.20
2019-04-07T02:36:23.926Z,95.20
2019-04-07T02:38:34.636Z,95.30
2019-04-07T02:40:45.701Z,95.10
2019-04-07T02:45:28.723Z,94.90
2019-04-07T02:47:35.876Z,95.20
2019-04-07T02:49:47.605Z,95.10
2019-04-07T02:52:00.741Z,95.40
2019-04-07T02:54:10.737Z,95.10
2019-04-07T02:56:29.445Z,94.90
2019-04-07T02:58:49.777Z,94.60
2019-04-07T03:00:57.682Z,94.50
2019-04-07T03:03:21.547Z,94.20
2019-04-07T03:05:40.609Z,94.20
2019-04-07T03:07:56.437Z,94.40
2019-04-07T03:10:04.406Z,94.80
2019-04-07T03:12:15.545Z,94.90
2019-04-07T03:14:26.260Z,94.90
2019-04-07T03:16:33.605Z,95.20
2019-04-07T03:18:44.394Z,95.10
2019-04-07T03:21:08.238Z,95.10
2019-04-07T03:23:28.508Z,95.30
2019-04-07T03:25:42.140Z,95.30
2019-04-07T03:27:52.783Z,95.20
2019-04-07T03:30:20.047Z,95.20
2019-04-07T03:32:33.933Z,95.20
2019-04-07T03:34:44.910Z,95.00
2019-04-07T03:37:19.117Z,95.00
2019-04-07T03:39:20.691Z,95.00
2019-04-07T03:41:29.029Z,95.10
2019-04-07T03:43:36.326Z,95.30
2019-04-07T03:45:49.855Z,95.20
2019-04-07T03:48:00.507Z,95.00
2019-04-07T03:50:18.554Z,94.90
2019-04-07T03:52:26.832Z,94.90
2019-04-07T03:54:52.698Z,94.90
2019-04-07T03:57:16.561Z,94.70
2019-04-07T03:59:33.780Z,94.60
2019-04-07T04:01:53.934Z,94.60
2019-04-07T04:04:02.182Z,94.60
2019-04-07T04:06:25.963Z,94.60
2019-04-07T04:08:48.993Z,94.50
2019-04-07T04:10:56.720Z,94.70
2019-04-07T04:13:05.052Z,94.80
2019-04-07T04:15:12.671Z,94.30
2019-04-07T04:17:18.383Z,94.20
2019-04-07T04:19:24.704Z,94.40
2019-04-07T04:21:30.899Z,94.60
2019-04-07T04:23:36.554Z,94.50
2019-04-07T04:25:42.907Z,94.30
2019-04-07T04:27:48.735Z,94.30
2019-04-07T04:29:55.212Z,94.40
2019-04-07T04:32:01.547Z,94.40
2019-04-07T04:34:07.207Z,94.40
2019-04-07T04:36:13.538Z,93.90
2019-04-07T04:38:20.073Z,93.70
2019-04-07T04:40:25.677Z,93.60
2019-04-07T04:42:31.285Z,93.50
2019-04-07T04:44:36.775Z,93.80
2019-04-07T04:46:42.673Z,93.80
2019-04-07T04:48:48.979Z,93.90
2019-04-07T04:50:55.971Z,94.10
2019-04-07T04:53:02.057Z,94.00
2019-04-07T04:55:07.724Z,94.10
2019-04-07T04:57:13.256Z,94.20
2019-04-07T04:59:18.769Z,94.30
2019-04-07T05:01:24.324Z,94.30
2019-04-07T05:03:30.462Z,94.50
2019-04-07T05:05:36.754Z,94.60
2019-04-07T05:07:54.118Z,94.60
2019-04-07T05:09:52.844Z,94.40
2019-04-07T05:11:56.592Z,94.50
2019-04-07T05:14:02.155Z,94.50
2019-04-07T05:16:08.280Z,94.50
2019-04-07T05:18:14.321Z,94.30
2019-04-07T05:20:20.326Z,94.30
2019-04-07T05:22:26.808Z,94.30
2019-04-07T05:24:32.348Z,94.40
2019-04-07T05:26:50.112Z,94.40
2019-04-07T05:28:55.653Z,94.40
2019-04-07T05:31:01.164Z,94.40
2019-04-07T05:33:06.681Z,94.60
2019-04-07T05:35:12.279Z,94.70
2019-04-07T05:37:17.826Z,94.70
2019-04-07T05:39:24.074Z,94.40
2019-04-07T05:41:31.208Z,94.30
2019-04-07T05:43:36.972Z,94.40
2019-04-07T05:45:43.356Z,94.20
2019-04-07T05:47:50.786Z,94.20
2019-04-07T05:49:58.731Z,93.90
2019-04-07T05:52:05.690Z,93.50
2019-04-07T05:54:12.300Z,93.20
2019-04-07T05:56:18.555Z,92.50
2019-04-07T05:58:24.301Z,92.10
2019-04-07T06:00:29.857Z,91.90
2019-04-07T06:02:35.427Z,91.90
2019-04-07T06:04:41.545Z,91.70
2019-04-07T06:06:51.143Z,92.00
2019-04-07T06:08:55.048Z,91.80
2019-04-07T06:11:02.320Z,92.00
2019-04-07T06:13:11.276Z,91.80
2019-04-07T06:15:21.280Z,92.00
2019-04-07T06:17:25.920Z,92.10
2019-04-07T06:19:30.380Z,91.90
2019-04-07T06:21:36.641Z,91.70
2019-04-07T06:23:42.256Z,91.80
2019-04-07T06:25:47.761Z,91.40
2019-04-07T06:27:53.350Z,91.70
2019-04-07T06:30:00.051Z,91.50
2019-04-07T06:32:09.771Z,91.20
2019-04-07T06:34:13.699Z,90.10
2019-04-07T06:36:20.273Z,88.20
2019-04-07T06:38:33.670Z,87.70
2019-04-07T06:40:33.766Z,87.70
2019-04-07T06:42:40.473Z,90.10
2019-04-07T06:44:46.228Z,87.90
2019-04-07T06:47:11.853Z,87.30
2019-04-07T06:49:37.072Z,87.10
2019-04-07T06:52:02.042Z,89.70
2019-04-07T06:54:07.847Z,90.20
2019-04-07T06:56:20.870Z,89.90
2019-04-07T06:58:45.019Z,88.70
2019-04-07T07:01:11.064Z,89.90
2019-04-07T07:03:19.081Z,89.00
2019-04-07T07:05:38.792Z,84.00
2019-04-07T07:08:02.442Z,85.10
2019-04-07T07:10:11.368Z,82.00
2019-04-07T07:12:32.282Z,83.50
2019-04-07T07:14:50.709Z,84.30
2019-04-07T07:17:16.998Z,83.60
2019-04-07T07:19:39.236Z,82.80
2019-04-07T07:22:06.476Z,80.40
2019-04-07T07:24:10.433Z,80.20
2019-04-07T07:26:16.038Z,78.00
2019-04-07T07:28:21.532Z,77.50
2019-04-07T07:30:27.200Z,76.70
2019-04-07T07:32:35.554Z,76.90
2019-04-07T07:34:42.121Z,77.00
2019-04-07T07:36:49.833Z,76.10
2019-04-07T07:38:59.064Z,75.10
2019-04-07T07:41:03.336Z,72.50
2019-04-07T07:43:08.661Z,71.60
2019-04-07T07:45:14.216Z,74.00
2019-04-07T07:47:20.839Z,75.00
2019-04-07T07:49:28.135Z,73.50
2019-04-07T07:51:34.947Z,73.10
2019-04-07T07:53:41.554Z,69.10
2019-04-07T07:55:47.660Z,69.50
2019-04-07T07:57:56.768Z,67.90
2019-04-07T08:00:00.442Z,66.10
2019-04-07T08:02:07.625Z,69.20
2019-04-07T08:04:13.949Z,64.40
2019-04-07T08:06:19.499Z,64.80
2019-04-07T08:08:25.420Z,65.80
2019-04-07T08:10:30.953Z,63.80
2019-04-07T08:12:36.474Z,64.70
2019-04-07T08:14:42.568Z,61.00
2019-04-07T08:16:48.973Z,60.60
2019-04-07T08:18:55.668Z,56.60
2019-04-07T08:21:02.190Z,55.70
2019-04-07T08:23:07.894Z,58.10
2019-04-07T08:25:14.139Z,58.10
2019-04-07T08:27:20.508Z,60.10
2019-04-07T08:29:26.910Z,59.80
2019-04-07T08:31:32.703Z,57.80
2019-04-07T08:33:38.582Z,58.30
2019-04-07T08:35:44.080Z,60.80
2019-04-07T08:37:50.061Z,57.00
2019-04-07T08:39:57.005Z,52.90
2019-04-07T08:42:06.602Z,56.00
2019-04-07T08:44:10.493Z,55.10
2019-04-07T08:46:16.392Z,56.10
2019-04-07T08:48:21.931Z,52.10
2019-04-07T08:50:28.628Z,51.60
2019-04-07T08:52:34.388Z,50.50
2019-04-07T08:54:39.912Z,50.60
2019-04-07T08:56:45.746Z,52.60
2019-04-07T08:58:52.127Z,51.20
2019-04-07T09:00:58.520Z,53.90
2019-04-07T09:03:10.574Z,54.30
2019-04-07T09:05:11.696Z,54.70
2019-04-07T09:07:17.543Z,51.30
2019-04-07T09:09:32.623Z,54.80
2019-04-07T09:11:32.112Z,51.10
2019-04-07T09:13:38.479Z,53.00
2019-04-07T09:15:55.536Z,54.20
2019-04-07T09:18:03.319Z,52.30
2019-04-07T09:20:13.542Z,55.30
2019-04-07T09:22:31.607Z,56.00
2019-04-07T09:24:55.126Z,55.50
2019-04-07T09:27:18.229Z,60.50
2019-04-07T09:29:39.797Z,57.40
2019-04-07T09:31:53.018Z,60.80
2019-04-07T09:34:00.148Z,58.10
2019-04-07T09:36:16.935Z,58.50
2019-04-07T09:38:29.785Z,61.10
2019-04-07T09:40:48.230Z,61.50
2019-04-07T09:43:01.262Z,62.60
2019-04-07T09:45:26.464Z,59.40
2019-04-07T09:47:47.757Z,58.70
2019-04-07T09:49:58.316Z,62.70
2019-04-07T09:52:11.773Z,64.10
2019-04-07T09:54:29.628Z,61.20
2019-04-07T09:59:22.847Z,59.20
2019-04-07T10:01:32.933Z,63.80
2019-04-07T10:03:42.617Z,65.00
2019-04-07T10:05:55.700Z,64.40
2019-04-07T10:08:05.615Z,62.50
2019-04-07T10:12:52.831Z,62.80
2019-04-07T10:15:16.643Z,63.60
2019-04-07T10:17:26.221Z,63.80
2019-04-07T10:19:49.998Z,64.40
2019-04-07T10:21:57.188Z,67.40
2019-04-07T10:24:05.195Z,66.90
2019-04-07T10:26:15.832Z,67.40
2019-04-07T10:28:40.083Z,67.90
2019-04-07T10:30:56.597Z,69.00
2019-04-07T10:33:06.728Z,66.70
2019-04-07T10:35:16.864Z,67.70
2019-04-07T10:37:30.250Z,68.90
2019-04-07T10:39:43.448Z,66.30
2019-04-07T10:42:05.542Z,66.10
2019-04-07T10:44:16.120Z,64.10
2019-04-07T10:46:39.825Z,60.20
2019-04-07T10:49:04.301Z,58.40
2019-04-07T10:51:12.165Z,58.50
2019-04-07T10:53:22.722Z,56.90
2019-04-07T10:55:45.300Z,57.70
2019-04-07T10:57:52.489Z,55.20
2019-04-07T10:59:59.656Z,58.50
2019-04-07T11:02:23.772Z,58.70
2019-04-07T11:04:47.421Z,56.20
2019-04-07T11:07:04.109Z,54.00
2019-04-07T11:09:28.376Z,55.70
2019-04-07T11:11:49.090Z,56.50
2019-04-07T11:14:09.615Z,56.70
2019-04-07T11:16:35.109Z,60.10
2019-04-07T11:18:58.639Z,61.10
2019-04-07T11:21:05.895Z,61.80
2019-04-07T11:23:13.107Z,62.80
2019-04-07T11:25:20.708Z,63.10
2019-04-07T11:27:33.335Z,65.00
2019-04-07T11:29:43.626Z,63.80
2019-04-07T11:31:54.951Z,64.10
2019-04-07T11:34:02.104Z,61.90
2019-04-07T11:36:09.459Z,60.00
2019-04-07T11:38:25.668Z,63.40
2019-04-07T11:40:45.889Z,62.90
2019-04-07T11:43:02.234Z,60.40
2019-04-07T11:45:13.808Z,55.60
2019-04-07T11:47:33.959Z,55.20
2019-04-07T11:49:57.174Z,54.40
2019-04-07T11:52:10.455Z,55.10
2019-04-07T11:54:20.352Z,57.50
2019-04-07T11:56:40.139Z,59.30
2019-04-07T11:59:03.521Z,58.00
2019-04-07T12:01:22.956Z,59.20
2019-04-07T12:03:39.862Z,59.20
2019-04-07T12:05:48.431Z,59.70
2019-04-07T12:08:12.005Z,60.60
2019-04-07T12:10:19.151Z,59.00
2019-04-07T12:12:38.658Z,60.20
2019-04-07T12:14:57.804Z,62.00
2019-04-07T12:19:40.229Z,59.90
2019-04-07T12:21:48.059Z,57.20
2019-04-07T12:24:13.768Z,55.60
2019-04-07T12:26:20.970Z,52.80
2019-04-07T12:28:28.249Z,55.50
2019-04-07T12:30:35.866Z,55.70
2019-04-07T12:32:49.805Z,58.30
2019-04-07T12:35:17.190Z,56.70
2019-04-07T12:37:39.299Z,57.80
2019-04-07T12:39:51.991Z,58.40
2019-04-07T12:42:16.733Z,56.70
2019-04-07T12:44:39.805Z,56.40
2019-04-07T12:46:50.906Z,55.80
2019-04-07T12:49:06.737Z,53.80
2019-04-07T12:51:19.869Z,54.40
2019-04-07T12:53:33.472Z,57.10
2019-04-07T12:55:46.922Z,56.80
2019-04-07T12:57:52.756Z,53.40
2019-04-07T13:00:09.185Z,54.00
2019-04-07T13:02:28.517Z,54.30
2019-04-07T13:04:50.591Z,53.10
2019-04-07T13:07:03.822Z,53.50
2019-04-07T13:09:31.489Z,56.80
2019-04-07T13:11:55.811Z,55.60
2019-04-07T13:14:06.174Z,52.90
2019-04-07T13:16:28.214Z,53.00
2019-04-07T13:18:52.177Z,53.70
2019-04-07T13:21:03.299Z,53.50
2019-04-07T13:23:13.615Z,53.50
2019-04-07T13:25:29.189Z,56.10
2019-04-07T13:27:38.954Z,55.10
2019-04-07T13:29:54.339Z,55.20
2019-04-07T13:32:01.525Z,56.60
2019-04-07T13:34:24.858Z,54.40
2019-04-07T13:36:40.982Z,55.00
2019-04-07T13:38:54.540Z,58.40
2019-04-07T13:41:04.604Z,57.00
2019-04-07T13:43:31.163Z,57.80
2019-04-07T13:45:55.843Z,57.70
2019-04-07T13:48:06.190Z,58.50
2019-04-07T13:50:16.519Z,57.60
2019-04-07T13:52:23.637Z,57.70
2019-04-07T13:54:37.235Z,57.90
2019-04-07T13:57:00.617Z,57.00
2019-04-07T13:59:24.611Z,58.10
2019-04-07T14:01:44.036Z,59.50
2019-04-07T14:04:02.837Z,56.00
2019-04-07T14:06:14.706Z,58.60
2019-04-07T14:08:33.444Z,57.50
2019-04-07T14:10:59.310Z,56.00
2019-04-07T14:13:12.494Z,57.00
2019-04-07T14:15:35.922Z,58.00
2019-04-07T14:18:00.106Z,57.40
2019-04-07T14:20:11.613Z,57.20
2019-04-07T14:22:34.297Z,57.70
2019-04-07T14:24:44.974Z,59.50
2019-04-07T14:27:07.588Z,58.70
2019-04-07T14:29:17.424Z,57.80
2019-04-07T14:31:28.230Z,57.40
2019-04-07T14:33:50.737Z,57.00
2019-04-07T14:35:58.248Z,56.90
2019-04-07T14:38:05.529Z,58.00
2019-04-07T14:40:12.871Z,57.40
2019-04-07T14:42:20.020Z,57.10
2019-04-07T14:44:36.948Z,56.90
2019-04-07T14:46:47.053Z,56.50
2019-04-07T14:48:56.934Z,58.70
2019-04-07T14:51:07.199Z,58.70
2019-04-07T14:53:30.541Z,57.30
2019-04-07T14:55:43.456Z,57.60
2019-04-07T14:58:02.419Z,57.20
2019-04-07T15:00:26.926Z,57.30
2019-04-07T15:02:32.243Z,57.50
2019-04-07T15:04:54.389Z,57.20
2019-04-07T15:07:06.901Z,57.20
2019-04-07T15:09:13.773Z,58.20
2019-04-07T15:11:23.775Z,59.70
2019-04-07T15:13:29.961Z,59.50
2019-04-07T15:15:35.706Z,59.80
2019-04-07T15:17:41.318Z,58.90
2019-04-07T15:19:47.347Z,58.70
2019-04-07T15:21:54.955Z,58.70
2019-04-07T15:24:04.052Z,58.50
2019-04-07T15:26:07.767Z,57.80
2019-04-07T15:28:14.198Z,58.10
2019-04-07T15:30:20.282Z,59.20
2019-04-07T15:32:28.495Z,58.30
2019-04-07T15:34:33.166Z,59.30
2019-04-07T15:36:38.684Z,61.30
2019-04-07T15:38:44.296Z,59.50
2019-04-07T15:40:50.577Z,60.10
2019-04-07T15:42:56.898Z,60.80
2019-04-07T15:45:02.550Z,61.10
2019-04-07T15:47:09.255Z,60.30
2019-04-07T15:49:14.937Z,58.90
2019-04-07T15:51:20.480Z,59.10
2019-04-07T15:53:26.014Z,59.40
2019-04-07T15:55:46.420Z,59.50
2019-04-07T15:57:38.748Z,59.60
2019-04-07T15:59:44.997Z,59.20
2019-04-07T16:01:50.993Z,60.50
2019-04-07T16:03:57.099Z,60.40
2019-04-07T16:06:03.436Z,61.00
2019-04-07T16:08:11.242Z,60.10
2019-04-07T16:10:18.707Z,59.30
2019-04-07T16:12:24.096Z,60.00
2019-04-07T16:14:29.824Z,59.40
2019-04-07T16:16:36.072Z,59.90
2019-04-07T16:18:43.420Z,61.40
2019-04-07T16:20:49.562Z,60.30
2019-04-07T16:22:55.490Z,59.90
2019-04-07T16:25:01.795Z,59.10
2019-04-07T16:27:08.984Z,59.80
2019-04-07T16:29:17.052Z,60.70
2019-04-07T16:31:24.175Z,60.90
2019-04-07T16:33:32.551Z,59.40
2019-04-07T16:35:36.540Z,60.10
2019-04-07T16:37:42.178Z,59.10
2019-04-07T16:39:47.699Z,60.10
2019-04-07T16:41:53.429Z,60.60
2019-04-07T16:43:58.997Z,59.60
2019-04-07T16:46:05.535Z,61.70
2019-04-07T16:48:12.866Z,61.20
2019-04-07T16:50:20.390Z,61.10
2019-04-07T16:52:28.550Z,61.90
2019-04-07T16:54:34.132Z,62.80
2019-04-07T16:56:40.224Z,62.90
2019-04-07T16:58:46.909Z,63.10
2019-04-07T17:00:52.561Z,64.00
2019-04-07T17:02:58.266Z,64.80
2019-04-07T17:05:05.512Z,64.40
2019-04-07T17:07:15.312Z,65.20
2019-04-07T17:09:22.797Z,65.90
2019-04-07T17:11:26.660Z,66.70
2019-04-07T17:13:38.593Z,68.50
2019-04-07T17:15:40.937Z,68.50
2019-04-07T17:17:51.352Z,69.00
2019-04-07T17:19:57.481Z,69.20
2019-04-07T17:22:01.788Z,70.00
2019-04-07T17:24:07.671Z,70.00
2019-04-07T17:26:13.703Z,70.60
2019-04-07T17:28:19.521Z,71.90
2019-04-07T17:30:26.202Z,72.30
2019-04-07T17:32:35.492Z,72.20
2019-04-07T17:34:41.711Z,72.50
2019-04-07T17:36:50.681Z,72.70
2019-04-07T17:39:05.426Z,72.60
2019-04-07T17:41:14.280Z,73.00
2019-04-07T17:43:27.056Z,73.60
2019-04-07T17:45:30.932Z,73.50
2019-04-07T17:47:52.837Z,73.80
2019-04-07T17:50:12.619Z,73.80
2019-04-07T17:52:20.773Z,73.90
2019-04-07T17:54:44.230Z,73.50
2019-04-07T17:56:53.882Z,73.20
2019-04-07T17:59:13.153Z,73.10
2019-04-07T18:01:35.752Z,72.20
2019-04-07T18:03:47.108Z,72.00
2019-04-07T18:06:11.211Z,71.70
2019-04-07T18:08:18.507Z,71.90
2019-04-07T18:10:41.909Z,71.80
2019-04-07T18:13:01.098Z,72.30
2019-04-07T18:15:10.681Z,73.10
2019-04-07T18:17:33.461Z,72.60
2019-04-07T18:19:43.592Z,72.70
2019-04-07T18:22:03.226Z,73.30
2019-04-07T18:24:22.803Z,73.00
2019-04-07T18:26:38.733Z,73.90
2019-04-07T18:28:54.996Z,72.80
2019-04-07T18:31:11.683Z,72.70
2019-04-07T18:33:20.695Z,73.00
2019-04-07T18:35:43.168Z,73.10
2019-04-07T18:37:56.469Z,73.30
2019-04-07T18:40:19.981Z,73.40
2019-04-07T18:42:33.082Z,73.10
2019-04-07T18:47:23.884Z,73.20
2019-04-07T18:49:33.698Z,73.00
2019-04-07T18:51:47.233Z,73.00
2019-04-07T18:54:10.896Z,73.00
2019-04-07T18:56:23.496Z,72.80
2019-04-07T18:58:31.193Z,73.30
2019-04-07T19:00:39.195Z,73.70
2019-04-07T19:02:52.565Z,74.00
2019-04-07T19:05:05.786Z,74.30
2019-04-07T19:07:30.454Z,74.80
2019-04-07T19:09:41.116Z,74.40
2019-04-07T19:11:48.716Z,74.40
2019-04-07T19:14:26.103Z,74.50
2019-04-07T19:16:19.109Z,74.80
2019-04-07T19:18:32.559Z,75.10
2019-04-07T19:20:56.068Z,75.20
2019-04-07T19:23:04.330Z,75.40
2019-04-07T19:25:17.576Z,75.20
2019-04-07T19:27:41.069Z,75.40
2019-04-07T19:29:51.258Z,75.50
2019-04-07T19:32:07.996Z,75.70
2019-04-07T19:34:30.081Z,76.00
2019-04-07T19:36:48.250Z,75.80
2019-04-07T19:38:59.115Z,76.20
2019-04-07T19:41:24.426Z,76.00
2019-04-07T19:43:37.564Z,76.20
2019-04-07T19:45:54.882Z,75.80
2019-04-07T19:48:04.039Z,75.80
2019-04-07T19:50:27.138Z,75.90
2019-04-07T19:52:37.178Z,76.20
2019-04-07T19:57:13.349Z,76.50
2019-04-07T20:04:12.936Z,76.30
2019-04-07T20:06:24.800Z,76.70
2019-04-07T20:08:37.657Z,76.70
2019-04-07T20:11:03.122Z,77.60
2019-04-07T20:13:26.744Z,78.10
2019-04-07T20:15:46.087Z,78.80
2019-04-07T20:17:58.998Z,79.90
2019-04-07T20:20:13.992Z,80.10
2019-04-07T20:22:39.463Z,80.90
2019-04-07T20:25:03.126Z,81.50
2019-04-07T20:27:22.711Z,82.10
2019-04-07T20:29:33.841Z,82.40
2019-04-07T20:31:53.492Z,82.50
2019-04-07T20:34:03.936Z,83.00
2019-04-07T20:36:15.020Z,83.30
2019-04-07T20:38:19.704Z,83.50
2019-04-07T20:40:45.460Z,82.90
2019-04-07T20:42:53.167Z,82.10
2019-04-07T20:45:06.601Z,82.90
2019-04-07T20:47:26.678Z,81.50
2019-04-07T20:49:51.642Z,81.70
2019-04-07T20:51:59.031Z,81.50
2019-04-07T20:54:21.606Z,81.60
2019-04-07T20:59:04.641Z,82.00
2019-04-07T21:01:12.969Z,81.70
2019-04-07T21:03:33.979Z,81.60
2019-04-07T21:05:42.043Z,81.90
2019-04-07T21:07:49.299Z,82.90
2019-04-07T21:10:12.570Z,83.40
2019-04-07T21:12:19.740Z,83.90
2019-04-07T21:14:43.186Z,84.30
2019-04-07T21:16:50.969Z,84.80
2019-04-07T21:19:13.375Z,85.40
2019-04-07T21:21:26.745Z,86.10
2019-04-07T21:23:50.876Z,86.30
2019-04-07T21:26:07.885Z,86.60
2019-04-07T21:28:16.034Z,86.70
2019-04-07T21:30:23.227Z,87.00
2019-04-07T21:32:31.245Z,87.20
2019-04-07T21:34:51.531Z,87.20
2019-04-07T21:37:04.782Z,87.10
2019-04-07T21:39:12.074Z,87.00
2019-04-07T21:41:22.612Z,87.50
2019-04-07T21:43:32.875Z,87.60
2019-04-07T21:45:45.843Z,88.20
2019-04-07T21:47:53.072Z,88.80
2019-04-07T21:50:07.477Z,88.80
2019-04-07T21:52:24.574Z,89.00
2019-04-07T21:54:44.062Z,88.80
2019-04-07T21:56:54.385Z,89.60
2019-04-07T21:59:10.793Z,89.70
2019-04-07T22:01:18.684Z,89.30
2019-04-07T22:03:35.260Z,89.60
2019-04-07T22:05:56.389Z,89.80
2019-04-07T22:08:13.091Z,89.70
2019-04-07T22:10:13.706Z,90.00
2019-04-07T22:12:19.497Z,90.20
2019-04-07T22:14:26.427Z,90.40
2019-04-07T22:16:33.104Z,90.20
2019-04-07T22:18:39.468Z,90.80
2019-04-07T22:20:45.367Z,90.60
2019-04-07T22:22:51.315Z,91.60
2019-04-07T22:24:56.935Z,91.00
2019-04-07T22:27:04.587Z,91.30
2019-04-07T22:29:09.806Z,91.20
2019-04-07T22:31:16.977Z,90.90
2019-04-07T22:33:25.605Z,90.80
2019-04-07T22:35:30.351Z,90.90
2019-04-07T22:37:36.029Z,90.80
2019-04-07T22:39:41.798Z,90.80
2019-04-07T22:41:48.297Z,90.90
2019-04-07T22:43:54.042Z,90.90
2019-04-07T22:46:08.712Z,91.10
2019-04-07T22:48:14.181Z,91.30
2019-04-07T22:50:21.270Z,91.20
2019-04-07T22:52:27.819Z,91.10
2019-04-07T22:54:33.543Z,91.00
2019-04-07T22:56:39.893Z,91.00
2019-04-07T22:58:46.531Z,91.00
2019-04-07T23:00:52.244Z,91.30
2019-04-07T23:02:57.932Z,91.20
2019-04-07T23:05:03.453Z,91.40
2019-04-07T23:07:09.005Z,91.60
2019-04-07T23:09:15.484Z,91.90
2019-04-07T23:11:21.150Z,92.30
2019-04-07T23:13:26.721Z,91.90
2019-04-07T23:15:40.141Z,92.20
2019-04-07T23:17:39.813Z,92.00
2019-04-07T23:19:46.253Z,91.90
2019-04-07T23:21:51.864Z,92.00
2019-04-07T23:23:57.718Z,92.00
2019-04-07T23:26:03.356Z,92.10
2019-04-07T23:28:08.886Z,92.40
2019-04-07T23:30:17.285Z,92.40
2019-04-07T23:32:23.986Z,92.30
2019-04-07T23:34:29.706Z,92.30
2019-04-07T23:36:36.121Z,92.40
2019-04-07T23:38:41.700Z,92.40
2019-04-07T23:40:48.176Z,92.40
2019-04-07T23:42:53.763Z,92.30
2019-04-07T23:44:59.309Z,92.30
2019-04-07T23:47:06.852Z,92.10
2019-04-07T23:49:13.123Z,92.10
2019-04-07T23:51:18.797Z,92.10
2019-04-07T23:56:18.335Z,91.90
2019-04-07T23:58:23.847Z,92.00
